createdAt,value
2023-06-04T00:01:48.326Z,16.09
2023-06-04T00:04:16.168Z,16.49
2023-06-04T00:06:44.946Z,16.36
2023-06-04T00:09:12.552Z,16.54
2023-06-04T00:11:40.288Z,16.59
2023-06-04T00:14:07.962Z,16.93
2023-06-04T00:16:38.368Z,16.84
2023-06-04T00:19:06.083Z,16.96
2023-06-04T00:21:33.510Z,16.79
2023-06-04T00:24:01.598Z,16.56
2023-06-04T00:26:29.281Z,16.31
2023-06-04T00:28:56.647Z,16.26
2023-06-04T00:31:24.823Z,16.63
2023-06-04T00:33:53.078Z,16.47
2023-06-04T00:36:20.595Z,16.53
2023-06-04T00:38:48.026Z,16.43
2023-06-04T00:41:15.682Z,16.61
2023-06-04T00:43:46.805Z,16.07
2023-06-04T00:46:19.293Z,16.74
2023-06-04T00:48:47.185Z,15.90
2023-06-04T00:51:14.624Z,15.93
2023-06-04T00:53:42.060Z,16.14
2023-06-04T00:56:09.788Z,16.69
2023-06-04T00:58:40.916Z,16.46
2023-06-04T01:01:16.569Z,16.28
2023-06-04T01:03:46.314Z,16.42
2023-06-04T01:06:23.829Z,16.66
2023-06-04T01:08:55.281Z,16.64
2023-06-04T01:11:42.884Z,16.93
2023-06-04T01:14:11.195Z,17.08
2023-06-04T01:16:50.884Z,16.92
2023-06-04T01:19:43.145Z,16.97
2023-06-04T01:22:17.520Z,17.01
2023-06-04T01:24:45.207Z,16.98
2023-06-04T01:27:13.326Z,17.10
2023-06-04T01:29:40.707Z,16.92
2023-06-04T01:32:08.778Z,16.94
2023-06-04T01:34:47.596Z,16.92
2023-06-04T01:37:17.428Z,16.86
2023-06-04T01:39:45.211Z,16.94
2023-06-04T01:42:12.820Z,17.04
2023-06-04T01:44:40.504Z,16.84
2023-06-04T01:47:07.927Z,16.71
2023-06-04T01:49:38.198Z,16.82
2023-06-04T01:52:06.848Z,16.84
2023-06-04T01:54:35.082Z,16.90
2023-06-04T01:57:02.526Z,16.71
2023-06-04T01:59:30.268Z,16.56
2023-06-04T02:01:57.729Z,16.68
2023-06-04T02:04:26.311Z,16.66
2023-06-04T02:06:53.780Z,16.79
2023-06-04T02:09:22.044Z,17.11
2023-06-04T02:11:49.750Z,17.19
2023-06-04T02:14:17.141Z,17.02
2023-06-04T02:16:44.834Z,16.96
2023-06-04T02:19:14.017Z,16.89
2023-06-04T02:21:41.457Z,16.77
2023-06-04T02:24:09.135Z,17.11
2023-06-04T02:26:36.779Z,16.95
2023-06-04T02:29:04.184Z,17.00
2023-06-04T02:31:32.034Z,16.95
2023-06-04T02:33:59.496Z,16.93
2023-06-04T02:36:26.874Z,16.82
2023-06-04T02:38:54.586Z,16.88
2023-06-04T02:41:22.422Z,17.13
2023-06-04T02:43:49.812Z,16.02
2023-06-04T02:46:17.461Z,16.68
2023-06-04T02:48:44.878Z,16.67
2023-06-04T02:51:12.844Z,16.12
2023-06-04T02:53:40.618Z,16.09
2023-06-04T02:56:08.014Z,15.97
2023-06-04T02:58:40.237Z,16.14
2023-06-04T03:01:08.278Z,16.60
2023-06-04T03:03:36.889Z,16.65
2023-06-04T03:06:05.941Z,16.60
2023-06-04T03:08:33.665Z,16.66
2023-06-04T03:11:01.129Z,16.50
2023-06-04T03:13:28.565Z,16.57
2023-06-04T03:15:56.489Z,16.68
2023-06-04T03:18:24.035Z,16.74
2023-06-04T03:20:51.457Z,16.57
2023-06-04T03:23:19.338Z,16.67
2023-06-04T03:25:46.862Z,16.59
2023-06-04T03:28:14.335Z,16.34
2023-06-04T03:30:42.397Z,16.08
2023-06-04T03:33:11.021Z,16.30
2023-06-04T03:35:38.420Z,16.79
2023-06-04T03:38:06.310Z,16.79
2023-06-04T03:40:33.939Z,16.77
2023-06-04T03:43:01.655Z,16.46
2023-06-04T03:45:30.292Z,16.61
2023-06-04T03:47:57.857Z,17.17
2023-06-04T03:50:26.125Z,16.98
2023-06-04T03:52:54.097Z,17.03
2023-06-04T03:55:21.581Z,17.20
2023-06-04T03:57:49.428Z,17.25
2023-06-04T04:00:17.617Z,17.60
2023-06-04T04:02:46.441Z,17.69
2023-06-04T04:05:17.166Z,17.68
2023-06-04T04:07:45.910Z,17.60
2023-06-04T04:10:14.112Z,17.83
2023-06-04T04:12:42.195Z,17.65
2023-06-04T04:15:10.066Z,18.07
2023-06-04T04:17:37.893Z,18.31
2023-06-04T04:20:06.729Z,18.14
2023-06-04T04:22:35.576Z,18.33
2023-06-04T04:25:04.104Z,18.43
2023-06-04T04:27:32.219Z,18.61
2023-06-04T04:30:01.619Z,19.07
2023-06-04T04:32:31.941Z,19.50
2023-06-04T04:34:59.994Z,19.78
2023-06-04T04:37:27.626Z,20.73
2023-06-04T04:39:56.148Z,21.70
2023-06-04T04:42:24.211Z,22.97
2023-06-04T04:44:51.906Z,23.04
2023-06-04T04:47:20.207Z,22.82
2023-06-04T04:49:50.344Z,22.66
2023-06-04T04:52:18.108Z,22.53
2023-06-04T04:54:46.679Z,22.45
2023-06-04T04:57:14.514Z,22.27
2023-06-04T04:59:42.383Z,22.38
2023-06-04T05:02:10.186Z,21.99
2023-06-04T05:04:37.894Z,21.25
2023-06-04T05:07:05.664Z,20.79
2023-06-04T05:09:33.350Z,21.27
2023-06-04T05:12:01.487Z,21.59
2023-06-04T05:14:29.685Z,21.29
2023-06-04T05:17:00.438Z,20.96
2023-06-04T05:19:27.875Z,21.15
2023-06-04T05:21:55.562Z,21.40
2023-06-04T05:24:23.347Z,20.86
2023-06-04T05:26:50.834Z,20.69
2023-06-04T05:29:18.627Z,20.69
2023-06-04T05:31:46.599Z,21.11
2023-06-04T05:34:17.649Z,20.96
2023-06-04T05:36:45.494Z,21.08
2023-06-04T05:39:13.463Z,21.23
2023-06-04T05:41:42.000Z,20.64
2023-06-04T05:44:10.079Z,20.41
2023-06-04T05:46:37.992Z,20.81
2023-06-04T05:49:05.628Z,20.89
2023-06-04T05:51:32.998Z,20.56
2023-06-04T05:54:00.728Z,20.79
2023-06-04T05:56:28.416Z,20.82
2023-06-04T05:58:56.530Z,21.16
2023-06-04T06:01:24.733Z,21.16
2023-06-04T06:03:52.740Z,20.69
2023-06-04T06:06:21.949Z,21.26
2023-06-04T06:08:50.674Z,20.45
2023-06-04T06:11:18.911Z,21.10
2023-06-04T06:13:46.370Z,21.70
2023-06-04T06:16:14.080Z,21.79
2023-06-04T06:18:41.885Z,23.25
2023-06-04T06:21:09.481Z,24.80
2023-06-04T06:23:37.682Z,25.84
2023-06-04T06:26:09.232Z,25.72
2023-06-04T06:28:38.882Z,26.15
2023-06-04T06:31:07.522Z,26.31
2023-06-04T06:33:35.120Z,26.16
2023-06-04T06:36:02.984Z,26.15
2023-06-04T06:38:31.071Z,25.98
2023-06-04T06:40:58.607Z,25.56
2023-06-04T06:43:26.026Z,25.36
2023-06-04T06:45:53.667Z,25.63
2023-06-04T06:48:21.089Z,26.21
2023-06-04T06:50:48.492Z,26.09
2023-06-04T06:53:16.124Z,26.68
2023-06-04T06:55:43.499Z,26.82
2023-06-04T06:58:10.904Z,26.87
2023-06-04T07:00:38.623Z,25.98
2023-06-04T07:03:06.215Z,26.66
2023-06-04T07:05:33.730Z,27.08
2023-06-04T07:08:02.911Z,27.18
2023-06-04T07:10:31.099Z,28.30
2023-06-04T07:12:58.473Z,29.59
2023-06-04T07:15:26.090Z,29.85
2023-06-04T07:17:53.583Z,29.69
2023-06-04T07:20:20.988Z,28.50
2023-06-04T07:22:48.755Z,28.81
2023-06-04T07:25:16.279Z,29.19
2023-06-04T07:27:43.654Z,29.58
2023-06-04T07:30:11.446Z,29.08
2023-06-04T07:32:38.915Z,28.98
2023-06-04T07:35:06.728Z,29.11
2023-06-04T07:37:34.394Z,28.84
2023-06-04T07:40:01.769Z,28.56
2023-06-04T07:42:29.296Z,28.30
2023-06-04T07:44:56.961Z,27.47
2023-06-04T07:47:24.339Z,28.47
2023-06-04T07:50:01.783Z,29.05
2023-06-04T07:52:31.581Z,28.88
2023-06-04T07:54:59.316Z,29.63
2023-06-04T07:57:26.756Z,30.85
2023-06-04T07:59:54.458Z,31.50
2023-06-04T08:02:22.095Z,30.80
2023-06-04T08:04:50.189Z,30.28
2023-06-04T08:07:17.621Z,30.63
2023-06-04T08:09:46.495Z,31.34
2023-06-04T08:12:14.234Z,32.96
2023-06-04T08:14:41.593Z,34.51
2023-06-04T08:17:08.986Z,35.49
2023-06-04T08:19:43.027Z,35.85
2023-06-04T08:22:16.996Z,35.21
2023-06-04T08:24:52.767Z,34.83
2023-06-04T08:27:40.120Z,35.07
2023-06-04T08:30:28.650Z,35.63
2023-06-04T08:33:09.856Z,34.33
2023-06-04T08:35:46.407Z,33.29
2023-06-04T08:38:13.825Z,31.96
2023-06-04T08:40:41.705Z,31.27
2023-06-04T08:43:09.111Z,30.36
2023-06-04T08:45:39.953Z,29.30
2023-06-04T08:48:11.716Z,29.14
2023-06-04T08:50:39.074Z,29.08
2023-06-04T08:53:06.525Z,28.37
2023-06-04T08:55:34.217Z,28.15
2023-06-04T08:58:01.640Z,28.28
2023-06-04T09:00:29.032Z,27.36
2023-06-04T09:02:56.745Z,27.25
2023-06-04T09:05:24.369Z,26.98
2023-06-04T09:07:53.804Z,26.44
2023-06-04T09:10:23.126Z,26.89
2023-06-04T09:12:50.871Z,26.52
2023-06-04T09:15:18.264Z,26.70
2023-06-04T09:17:45.997Z,26.92
2023-06-04T09:20:20.779Z,26.68
2023-06-04T09:22:48.599Z,27.02
2023-06-04T09:25:28.967Z,26.63
2023-06-04T09:27:58.393Z,26.80
2023-06-04T09:30:26.188Z,26.62
2023-06-04T09:32:54.786Z,26.78
2023-06-04T09:35:22.703Z,26.52
2023-06-04T09:37:59.798Z,26.05
2023-06-04T09:40:37.310Z,26.13
2023-06-04T09:43:04.756Z,25.99
2023-06-04T09:45:33.328Z,25.86
2023-06-04T09:48:00.974Z,25.68
2023-06-04T09:50:33.221Z,25.82
2023-06-04T09:53:01.383Z,25.73
2023-06-04T09:55:28.811Z,25.68
2023-06-04T09:57:56.178Z,25.50
2023-06-04T10:00:24.914Z,25.28
2023-06-04T10:02:57.696Z,25.22
2023-06-04T10:05:25.998Z,25.37
2023-06-04T10:07:53.602Z,25.37
2023-06-04T10:10:24.134Z,24.84
2023-06-04T10:12:56.226Z,25.12
2023-06-04T10:15:23.612Z,25.10
2023-06-04T10:17:51.080Z,25.08
2023-06-04T10:20:19.297Z,24.88
2023-06-04T10:22:46.892Z,24.95
2023-06-04T10:25:14.324Z,25.07
2023-06-04T10:27:42.033Z,25.13
2023-06-04T10:30:09.865Z,25.03
2023-06-04T10:32:37.326Z,25.29
2023-06-04T10:35:08.837Z,25.22
2023-06-04T10:37:36.237Z,25.48
2023-06-04T10:40:06.077Z,25.06
2023-06-04T10:42:41.658Z,24.84
2023-06-04T10:45:09.651Z,25.48
2023-06-04T10:47:40.763Z,24.98
2023-06-04T10:50:12.426Z,25.58
2023-06-04T10:52:51.354Z,25.64
2023-06-04T10:55:18.791Z,25.42
2023-06-04T10:57:57.072Z,25.53
2023-06-04T11:00:41.702Z,25.29
2023-06-04T11:03:11.854Z,25.31
2023-06-04T11:05:43.679Z,24.99
2023-06-04T11:08:12.440Z,25.17
2023-06-04T11:10:44.799Z,25.20
2023-06-04T11:13:12.528Z,24.94
2023-06-04T11:15:42.293Z,25.50
2023-06-04T11:18:14.489Z,25.70
2023-06-04T11:20:43.589Z,25.28
2023-06-04T11:23:12.907Z,25.37
2023-06-04T11:25:40.577Z,25.71
2023-06-04T11:28:08.283Z,25.12
2023-06-04T11:30:35.730Z,25.06
2023-06-04T11:33:06.763Z,25.15
2023-06-04T11:35:41.513Z,25.20
2023-06-04T11:38:10.333Z,24.11
2023-06-04T11:40:38.236Z,24.22
2023-06-04T11:43:05.605Z,24.32
2023-06-04T11:45:33.049Z,24.29
2023-06-04T11:48:00.832Z,23.93
2023-06-04T11:50:29.030Z,23.80
2023-06-04T11:52:56.505Z,23.56
2023-06-04T11:55:24.214Z,23.88
2023-06-04T11:57:51.882Z,24.43
2023-06-04T12:00:20.214Z,24.52
2023-06-04T12:02:55.533Z,24.16
2023-06-04T12:05:24.771Z,24.06
2023-06-04T12:07:52.575Z,24.21
2023-06-04T12:10:20.733Z,24.23
2023-06-04T12:12:48.213Z,24.23
2023-06-04T12:15:20.413Z,24.37
2023-06-04T12:17:52.352Z,24.16
2023-06-04T12:20:32.481Z,24.06
2023-06-04T12:22:59.865Z,24.87
2023-06-04T12:25:28.936Z,24.25
2023-06-04T12:27:56.347Z,24.58
2023-06-04T12:30:23.818Z,24.50
2023-06-04T12:32:51.924Z,24.40
2023-06-04T12:35:21.142Z,24.54
2023-06-04T12:37:48.538Z,24.63
2023-06-04T12:40:16.231Z,24.61
2023-06-04T12:42:44.272Z,23.90
2023-06-04T12:45:11.843Z,24.89
2023-06-04T12:47:39.674Z,25.04
2023-06-04T12:50:07.373Z,24.81
2023-06-04T12:52:34.798Z,24.85
2023-06-04T12:55:02.476Z,25.11
2023-06-04T12:57:29.883Z,25.61
2023-06-04T12:59:58.374Z,25.33
2023-06-04T13:02:26.322Z,25.98
2023-06-04T13:04:55.703Z,25.76
2023-06-04T13:07:24.028Z,26.24
2023-06-04T13:09:52.616Z,25.63
2023-06-04T13:12:20.082Z,26.08
2023-06-04T13:14:47.519Z,26.19
2023-06-04T13:17:22.937Z,26.48
2023-06-04T13:19:51.213Z,26.09
2023-06-04T13:22:18.929Z,26.50
2023-06-04T13:24:46.394Z,26.05
2023-06-04T13:27:13.816Z,26.72
2023-06-04T13:29:43.733Z,25.50
2023-06-04T13:32:12.310Z,25.76
2023-06-04T13:34:39.883Z,25.58
2023-06-04T13:37:08.104Z,25.89
2023-06-04T13:39:35.528Z,26.48
2023-06-04T13:42:02.934Z,26.61
2023-06-04T13:44:30.662Z,26.45
2023-06-04T13:46:59.761Z,26.12
2023-06-04T13:49:27.166Z,26.18
2023-06-04T13:51:54.781Z,25.98
2023-06-04T13:54:22.221Z,25.88
2023-06-04T13:56:49.673Z,26.34
2023-06-04T13:59:17.346Z,26.19
2023-06-04T14:01:44.911Z,25.56
2023-06-04T14:04:12.761Z,25.93
2023-06-04T14:06:40.174Z,26.13
2023-06-04T14:09:08.006Z,26.18
2023-06-04T14:11:36.023Z,26.63
2023-06-04T14:14:03.451Z,26.23
2023-06-04T14:16:31.000Z,26.12
2023-06-04T14:18:58.766Z,25.80
2023-06-04T14:21:27.209Z,25.42
2023-06-04T14:23:54.727Z,26.18
2023-06-04T14:26:23.452Z,26.16
2023-06-04T14:28:51.001Z,25.48
2023-06-04T14:31:18.469Z,25.50
2023-06-04T14:33:46.129Z,25.66
2023-06-04T14:36:13.536Z,25.89
2023-06-04T14:38:40.973Z,25.29
2023-06-04T14:41:08.762Z,25.65
2023-06-04T14:43:36.356Z,25.87
2023-06-04T14:46:03.781Z,25.66
2023-06-04T14:48:31.609Z,25.78
2023-06-04T14:50:59.044Z,25.85
2023-06-04T14:53:26.440Z,25.92
2023-06-04T14:55:54.225Z,26.03
2023-06-04T14:58:21.638Z,26.13
2023-06-04T15:00:49.093Z,26.10
2023-06-04T15:03:16.813Z,25.85
2023-06-04T15:05:44.277Z,25.50
2023-06-04T15:08:11.743Z,25.81
2023-06-04T15:10:39.373Z,25.64
2023-06-04T15:13:06.817Z,25.42
2023-06-04T15:15:34.199Z,25.78
2023-06-04T15:18:01.932Z,25.53
2023-06-04T15:20:29.660Z,24.64
2023-06-04T15:22:57.065Z,24.83
2023-06-04T15:25:24.739Z,24.59
2023-06-04T15:27:52.230Z,24.31
2023-06-04T15:30:21.602Z,24.63
2023-06-04T15:32:49.359Z,24.56
2023-06-04T15:35:16.861Z,24.88
2023-06-04T15:37:44.299Z,24.42
2023-06-04T15:40:12.160Z,24.78
2023-06-04T15:42:39.553Z,25.14
2023-06-04T15:45:07.527Z,24.63
2023-06-04T15:47:35.271Z,25.24
2023-06-04T15:50:02.815Z,25.20
2023-06-04T15:52:30.235Z,24.73
2023-06-04T15:54:57.905Z,24.93
2023-06-04T15:57:25.346Z,24.97
2023-06-04T15:59:52.764Z,25.18
2023-06-04T16:02:20.381Z,25.24
2023-06-04T16:04:48.036Z,24.62
2023-06-04T16:07:15.703Z,24.61
2023-06-04T16:09:43.109Z,24.73
2023-06-04T16:12:11.080Z,25.01
2023-06-04T16:14:38.481Z,24.91
2023-06-04T16:17:06.121Z,23.84
2023-06-04T16:19:33.802Z,24.34
2023-06-04T16:22:01.260Z,24.45
2023-06-04T16:24:28.708Z,24.61
2023-06-04T16:26:56.395Z,24.00
2023-06-04T16:29:23.863Z,24.17
2023-06-04T16:31:51.468Z,24.68
2023-06-04T16:34:19.259Z,24.52
2023-06-04T16:36:46.655Z,24.64
2023-06-04T16:39:14.054Z,24.39
2023-06-04T16:41:41.789Z,24.36
2023-06-04T16:44:09.185Z,23.80
2023-06-04T16:46:36.957Z,23.64
2023-06-04T16:49:04.788Z,24.07
2023-06-04T16:51:32.235Z,24.15
2023-06-04T16:53:59.625Z,24.04
2023-06-04T16:56:27.325Z,23.52
2023-06-04T16:58:54.986Z,24.03
2023-06-04T17:01:22.434Z,23.71
2023-06-04T17:03:52.635Z,23.83
2023-06-04T17:06:20.520Z,23.83
2023-06-04T17:08:47.961Z,24.12
2023-06-04T17:11:15.798Z,24.44
2023-06-04T17:13:43.244Z,24.12
2023-06-04T17:16:10.792Z,24.36
2023-06-04T17:18:39.131Z,24.34
2023-06-04T17:21:06.632Z,24.13
2023-06-04T17:23:34.135Z,24.25
2023-06-04T17:26:01.787Z,24.35
2023-06-04T17:28:29.214Z,24.40
2023-06-04T17:30:56.670Z,24.02
2023-06-04T17:33:24.496Z,23.71
2023-06-04T17:35:51.882Z,23.86
2023-06-04T17:38:19.272Z,23.63
2023-06-04T17:40:46.971Z,24.14
2023-06-04T17:43:14.512Z,24.22
2023-06-04T17:45:42.205Z,23.87
2023-06-04T17:48:09.959Z,23.83
2023-06-04T17:50:37.379Z,23.50
2023-06-04T17:53:04.824Z,23.68
2023-06-04T17:55:32.540Z,23.62
2023-06-04T17:57:59.918Z,23.83
2023-06-04T18:00:27.291Z,23.71
2023-06-04T18:02:54.653Z,23.68
2023-06-04T18:05:22.348Z,23.69
2023-06-04T18:07:51.030Z,23.49
2023-06-04T18:10:18.415Z,23.50
2023-06-04T18:12:46.628Z,23.50
2023-06-04T18:15:16.820Z,23.53
2023-06-04T18:17:44.361Z,23.50
2023-06-04T18:20:12.176Z,23.35
2023-06-04T18:22:39.888Z,23.08
2023-06-04T18:25:09.061Z,23.21
2023-06-04T18:27:37.212Z,23.30
2023-06-04T18:30:05.147Z,22.79
2023-06-04T18:32:32.628Z,23.03
2023-06-04T18:35:00.382Z,23.13
2023-06-04T18:37:27.864Z,23.05
2023-06-04T18:39:55.280Z,23.03
2023-06-04T18:42:30.822Z,22.95
2023-06-04T18:45:00.575Z,23.13
2023-06-04T18:47:28.652Z,22.93
2023-06-04T18:49:56.924Z,22.90
2023-06-04T18:52:24.443Z,22.78
2023-06-04T18:54:52.100Z,22.75
2023-06-04T18:57:19.663Z,22.76
2023-06-04T18:59:47.070Z,22.41
2023-06-04T19:02:15.151Z,22.42
2023-06-04T19:04:42.524Z,22.46
2023-06-04T19:07:09.915Z,22.54
2023-06-04T19:09:37.601Z,22.47
2023-06-04T19:12:05.148Z,22.44
2023-06-04T19:14:32.541Z,22.63
2023-06-04T19:17:03.451Z,22.66
2023-06-04T19:19:31.037Z,22.84
2023-06-04T19:21:59.307Z,22.23
2023-06-04T19:24:27.020Z,22.07
2023-06-04T19:26:54.430Z,22.40
2023-06-04T19:29:21.814Z,22.09
2023-06-04T19:31:49.536Z,22.40
2023-06-04T19:34:17.047Z,21.85
2023-06-04T19:36:44.475Z,22.37
2023-06-04T19:39:12.163Z,21.88
2023-06-04T19:41:39.534Z,21.95
2023-06-04T19:44:06.908Z,21.76
2023-06-04T19:46:34.691Z,21.71
2023-06-04T19:49:02.312Z,21.53
2023-06-04T19:51:29.787Z,21.18
2023-06-04T19:53:57.465Z,21.70
2023-06-04T19:56:25.045Z,21.52
2023-06-04T19:58:52.585Z,21.47
2023-06-04T20:01:20.374Z,21.37
2023-06-04T20:03:49.869Z,21.04
2023-06-04T20:06:17.812Z,21.01
2023-06-04T20:08:45.880Z,21.36
2023-06-04T20:11:13.789Z,20.87
2023-06-04T20:13:41.912Z,21.04
2023-06-04T20:16:09.558Z,20.95
2023-06-04T20:18:37.430Z,21.18
2023-06-04T20:21:05.008Z,21.11
2023-06-04T20:23:32.423Z,20.98
2023-06-04T20:26:00.585Z,21.16
2023-06-04T20:28:29.955Z,21.24
2023-06-04T20:30:57.421Z,21.20
2023-06-04T20:33:26.933Z,20.85
2023-06-04T20:35:54.344Z,21.22
2023-06-04T20:38:21.796Z,20.92
2023-06-04T20:40:49.554Z,20.87
2023-06-04T20:43:17.034Z,21.18
2023-06-04T20:45:44.509Z,20.85
2023-06-04T20:48:12.286Z,20.87
2023-06-04T20:50:39.695Z,21.04
2023-06-04T20:53:07.146Z,21.12
2023-06-04T20:55:36.172Z,20.67
2023-06-04T20:58:03.689Z,20.91
2023-06-04T21:00:31.895Z,20.90
2023-06-04T21:02:59.731Z,20.59
2023-06-04T21:05:27.250Z,20.66
2023-06-04T21:07:59.855Z,20.55
2023-06-04T21:10:29.154Z,21.01
2023-06-04T21:12:56.570Z,20.65
2023-06-04T21:15:24.003Z,20.78
2023-06-04T21:17:51.890Z,20.60
2023-06-04T21:20:19.340Z,20.78
2023-06-04T21:22:46.772Z,20.96
2023-06-04T21:25:14.441Z,21.05
2023-06-04T21:27:41.873Z,20.91
2023-06-04T21:30:09.574Z,20.95
2023-06-04T21:32:37.310Z,21.03
2023-06-04T21:35:05.085Z,20.69
2023-06-04T21:37:32.482Z,20.66
2023-06-04T21:40:00.202Z,20.55
2023-06-04T21:42:27.632Z,20.72
2023-06-04T21:44:55.641Z,20.56
2023-06-04T21:47:23.696Z,20.90
2023-06-04T21:49:51.226Z,20.62
2023-06-04T21:52:25.751Z,20.45
2023-06-04T21:54:53.830Z,20.78
2023-06-04T21:57:21.334Z,20.41
2023-06-04T21:59:48.847Z,20.58
2023-06-04T22:02:16.636Z,20.46
2023-06-04T22:04:44.301Z,20.65
2023-06-04T22:07:11.714Z,20.90
2023-06-04T22:09:39.406Z,20.71
2023-06-04T22:12:07.799Z,20.62
2023-06-04T22:14:36.384Z,20.33
2023-06-04T22:17:03.947Z,20.68
2023-06-04T22:19:31.630Z,20.76
2023-06-04T22:21:59.021Z,20.81
2023-06-04T22:24:26.536Z,20.77
2023-06-04T22:26:54.259Z,20.86
2023-06-04T22:29:21.700Z,20.74
2023-06-04T22:31:49.345Z,20.61
2023-06-04T22:34:17.156Z,20.57
2023-06-04T22:36:45.564Z,20.83
2023-06-04T22:39:13.010Z,20.70
2023-06-04T22:41:40.847Z,19.85
2023-06-04T22:44:08.242Z,20.32
2023-06-04T22:46:35.663Z,20.49
2023-06-04T22:49:03.449Z,20.65
2023-06-04T22:51:31.039Z,20.73
2023-06-04T22:53:58.769Z,20.50
2023-06-04T22:56:26.438Z,20.44
2023-06-04T22:58:53.886Z,20.55
2023-06-04T23:01:21.302Z,20.65
2023-06-04T23:03:49.098Z,20.61
2023-06-04T23:06:16.634Z,20.83
2023-06-04T23:08:44.067Z,20.92
2023-06-04T23:11:13.126Z,20.86
2023-06-04T23:13:40.581Z,20.98
2023-06-04T23:16:08.093Z,20.80
2023-06-04T23:18:35.848Z,21.02
2023-06-04T23:21:03.334Z,20.57
2023-06-04T23:23:31.165Z,20.60
2023-06-04T23:25:58.945Z,20.61
2023-06-04T23:28:26.331Z,20.56
2023-06-04T23:30:53.716Z,20.98
2023-06-04T23:33:21.380Z,20.98
2023-06-04T23:35:49.395Z,21.26
2023-06-04T23:38:16.848Z,21.02
2023-06-04T23:40:44.628Z,21.12
2023-06-04T23:43:12.014Z,21.10
2023-06-04T23:45:39.501Z,21.10
2023-06-04T23:48:07.283Z,20.88
2023-06-04T23:50:34.780Z,20.76
2023-06-04T23:53:02.361Z,20.93
2023-06-04T23:55:30.082Z,21.34
2023-06-04T23:57:57.736Z,20.99
